Aérodrome :
LOGIN :

S'inscrire | Disclaimer

   EN    FR    IT 

 










Légende :    VFR   VFR Marginal   IFR   IFR Intensif   IFR Très Intensif
Visi : 
Plafond : 
>= 8 km
>= 3000ft
5 à 8 km
1000 à 3000 ft
1500m à 5 km
500 à 1000 ft
800 à 1500m
200 à 500 ft
< 800m
< 200 ft
Symboles :   Orages  Brouillard  Fortes neiges  Fortes précipitations  Vent > 20 kt
SIGMETs :   Divers  Orages  Givrage  Turbulence  Onde Orograph.  Cendres Volcan.






- Altitude de l'aérodrome : 529 ft
- Code IATA : CHR


LFLX - Chateauroux

DERNIER METAR :
  • 190530Z AUTO 25004KT 0400 R21/0450N FG VV/// 04/04 Q1018 TEMPO 0800 FG

METARs EXPIRÉS :
  • 190500Z AUTO 23003KT 3800 BR BKN004 OVC039 04/04 Q1017 TEMPO 0800 FG VV///
  • 190430Z AUTO 19003KT 3700 BR OVC039 04/04 Q1017 TEMPO 0800 FG VV///
  • 190400Z AUTO 19003KT 3800 BR OVC039 04/04 Q1017 TEMPO 0800 FG VV///
  • 190330Z AUTO VRB01KT 4500 BR OVC040 05/04 Q1017 TEMPO 0800 FG VV///
  • 190300Z AUTO 30003KT 4900 BR OVC041 05/05 Q1017 TEMPO 0800 FG VV///

TAF TAF LFLX
Valide du 19 à 06h jusqu'au 20 à 12h UTC


190500Z 1906/2012 VRB03KT 6000 BKN035
TEMPO 1906/1910 2000 BR BKN004
PROB30
TEMPO 1906/1910 0800 FG VV///
BECMG 1913/1915 08005KT SCT025
TEMPO 1919/2003 3000 BR BKN005
TEMPO 2003/2010 BKN011



MET'MAP, la Météo Aéronautique d'un coup d'oeil ! - Copyright ORBIFLY Décembre 2007 - Disclaimer

ORBIFLY MET'MAP TEAM :

Programmation & Développement : Alexandra Zaïnal
Conception & Développement : Baudouin d'Aumeries
Co-Programmation & Développement : Marc-Olivier Méhu
Soutien technique & logistique : Manuel Goepfert

Contact : metmap@orbifly.com




SOURCES & CREDITS :

   NOAA